sensor_id;sensor_type;location;lat;lon;timestamp;temperature;humidity
28484;DHT22;15704;48.834;8.736;2023-03-23T00:01:05;11.90;99.90
28484;DHT22;15704;48.834;8.736;2023-03-23T00:03:31;11.90;99.90
28484;DHT22;15704;48.834;8.736;2023-03-23T00:06:00;11.80;99.90
28484;DHT22;15704;48.834;8.736;2023-03-23T00:08:36;11.80;99.90
28484;DHT22;15704;48.834;8.736;2023-03-23T00:11:14;11.80;99.90
28484;DHT22;15704;48.834;8.736;2023-03-23T00:13:42;11.80;99.90
28484;DHT22;15704;48.834;8.736;2023-03-23T00:16:08;11.80;99.90
28484;DHT22;15704;48.834;8.736;2023-03-23T00:18:47;11.80;99.90
28484;DHT22;15704;48.834;8.736;2023-03-23T00:21:13;11.90;99.90
28484;DHT22;15704;48.834;8.736;2023-03-23T00:23:40;11.90;99.90
28484;DHT22;15704;48.834;8.736;2023-03-23T00:26:06;11.90;99.90
28484;DHT22;15704;48.834;8.736;2023-03-23T00:28:32;11.90;99.90
28484;DHT22;15704;48.834;8.736;2023-03-23T00:30:59;11.90;99.90
28484;DHT22;15704;48.834;8.736;2023-03-23T00:33:27;11.90;99.90
28484;DHT22;15704;48.834;8.736;2023-03-23T00:35:54;11.90;99.90
28484;DHT22;15704;48.834;8.736;2023-03-23T00:38:24;11.90;99.90
28484;DHT22;15704;48.834;8.736;2023-03-23T00:40:50;12.00;99.90
28484;DHT22;15704;48.834;8.736;2023-03-23T00:43:18;12.00;99.90
28484;DHT22;15704;48.834;8.736;2023-03-23T00:45:45;12.00;99.90
28484;DHT22;15704;48.834;8.736;2023-03-23T00:48:21;12.00;99.90
28484;DHT22;15704;48.834;8.736;2023-03-23T00:50:47;12.10;99.90
28484;DHT22;15704;48.834;8.736;2023-03-23T00:53:13;12.00;99.90
28484;DHT22;15704;48.834;8.736;2023-03-23T00:55:41;12.00;99.90
28484;DHT22;15704;48.834;8.736;2023-03-23T00:58:08;12.00;99.90
28484;DHT22;15704;48.834;8.736;2023-03-23T01:00:34;12.00;99.90
28484;DHT22;15704;48.834;8.736;2023-03-23T01:03:00;11.90;99.90
28484;DHT22;15704;48.834;8.736;2023-03-23T01:05:25;11.90;99.90
28484;DHT22;15704;48.834;8.736;2023-03-23T01:08:00;11.90;99.90
28484;DHT22;15704;48.834;8.736;2023-03-23T01:10:27;11.80;99.90
28484;DHT22;15704;48.834;8.736;2023-03-23T01:12:54;11.80;99.90
28484;DHT22;15704;48.834;8.736;2023-03-23T01:15:21;11.80;99.90
28484;DHT22;15704;48.834;8.736;2023-03-23T01:17:47;11.70;99.90
28484;DHT22;15704;48.834;8.736;2023-03-23T01:20:14;11.70;99.90
28484;DHT22;15704;48.834;8.736;2023-03-23T01:22:41;11.60;99.90
28484;DHT22;15704;48.834;8.736;2023-03-23T01:25:09;11.60;99.90
28484;DHT22;15704;48.834;8.736;2023-03-23T01:27:36;11.50;99.90
28484;DHT22;15704;48.834;8.736;2023-03-23T01:30:03;11.50;99.90
28484;DHT22;15704;48.834;8.736;2023-03-23T01:32:29;11.40;99.90
28484;DHT22;15704;48.834;8.736;2023-03-23T01:34:54;11.30;99.90
28484;DHT22;15704;48.834;8.736;2023-03-23T01:37:21;11.30;99.90
28484;DHT22;15704;48.834;8.736;2023-03-23T01:39:52;11.20;99.90
28484;DHT22;15704;48.834;8.736;2023-03-23T01:42:24;11.20;99.90
28484;DHT22;15704;48.834;8.736;2023-03-23T01:47:17;11.10;99.90
28484;DHT22;15704;48.834;8.736;2023-03-23T01:49:48;11.10;99.90
28484;DHT22;15704;48.834;8.736;2023-03-23T01:52:22;11.00;99.90
28484;DHT22;15704;48.834;8.736;2023-03-23T01:54:50;11.10;99.90
28484;DHT22;15704;48.834;8.736;2023-03-23T01:57:19;11.00;99.90
28484;DHT22;15704;48.834;8.736;2023-03-23T01:59:50;10.90;99.90
28484;DHT22;15704;48.834;8.736;2023-03-23T02:02:18;10.90;99.90
28484;DHT22;15704;48.834;8.736;2023-03-23T02:04:45;10.90;99.90
28484;DHT22;15704;48.834;8.736;2023-03-23T02:07:12;10.80;99.90
28484;DHT22;15704;48.834;8.736;2023-03-23T02:09:39;10.80;99.90
28484;DHT22;15704;48.834;8.736;2023-03-23T02:12:05;10.70;99.90
28484;DHT22;15704;48.834;8.736;2023-03-23T02:14:31;10.70;99.90
28484;DHT22;15704;48.834;8.736;2023-03-23T02:17:07;10.70;99.90
28484;DHT22;15704;48.834;8.736;2023-03-23T02:37:24;10.50;99.90
28484;DHT22;15704;48.834;8.736;2023-03-23T02:39:56;10.50;99.90
28484;DHT22;15704;48.834;8.736;2023-03-23T02:42:29;10.50;99.90
28484;DHT22;15704;48.834;8.736;2023-03-23T02:44:58;10.50;99.90
28484;DHT22;15704;48.834;8.736;2023-03-23T02:47:29;10.50;99.90
28484;DHT22;15704;48.834;8.736;2023-03-23T02:49:57;10.60;99.90
28484;DHT22;15704;48.834;8.736;2023-03-23T02:52:31;10.60;99.90
28484;DHT22;15704;48.834;8.736;2023-03-23T02:54:59;10.70;99.90
28484;DHT22;15704;48.834;8.736;2023-03-23T02:57:26;10.80;99.90
28484;DHT22;15704;48.834;8.736;2023-03-23T02:59:53;10.80;99.90
28484;DHT22;15704;48.834;8.736;2023-03-23T03:02:28;10.80;99.90
28484;DHT22;15704;48.834;8.736;2023-03-23T03:05:00;10.90;99.90
28484;DHT22;15704;48.834;8.736;2023-03-23T03:07:46;10.90;99.90
28484;DHT22;15704;48.834;8.736;2023-03-23T03:15:57;11.00;99.90
28484;DHT22;15704;48.834;8.736;2023-03-23T03:18:28;11.00;99.90
28484;DHT22;15704;48.834;8.736;2023-03-23T03:20:59;11.00;99.90
28484;DHT22;15704;48.834;8.736;2023-03-23T03:23:27;11.00;99.90
28484;DHT22;15704;48.834;8.736;2023-03-23T03:25:55;11.00;99.90
28484;DHT22;15704;48.834;8.736;2023-03-23T03:28:24;11.00;99.90
28484;DHT22;15704;48.834;8.736;2023-03-23T03:30:57;11.00;99.90
28484;DHT22;15704;48.834;8.736;2023-03-23T03:33:27;11.00;99.90
28484;DHT22;15704;48.834;8.736;2023-03-23T03:35:58;11.00;99.90
28484;DHT22;15704;48.834;8.736;2023-03-23T03:38:25;11.00;99.90
28484;DHT22;15704;48.834;8.736;2023-03-23T03:40:51;11.00;99.90
28484;DHT22;15704;48.834;8.736;2023-03-23T03:43:17;11.00;99.90
28484;DHT22;15704;48.834;8.736;2023-03-23T03:45:43;11.00;99.90
28484;DHT22;15704;48.834;8.736;2023-03-23T03:48:10;11.10;99.90
28484;DHT22;15704;48.834;8.736;2023-03-23T03:50:36;11.10;99.90
28484;DHT22;15704;48.834;8.736;2023-03-23T03:53:02;11.10;99.90
28484;DHT22;15704;48.834;8.736;2023-03-23T03:55:28;11.10;99.90
28484;DHT22;15704;48.834;8.736;2023-03-23T03:57:55;11.10;99.90
28484;DHT22;15704;48.834;8.736;2023-03-23T04:00:20;11.20;99.90
28484;DHT22;15704;48.834;8.736;2023-03-23T04:02:49;11.20;99.90
28484;DHT22;15704;48.834;8.736;2023-03-23T04:05:20;11.20;99.90
28484;DHT22;15704;48.834;8.736;2023-03-23T04:07:46;11.20;99.90
28484;DHT22;15704;48.834;8.736;2023-03-23T04:10:15;11.30;99.90
28484;DHT22;15704;48.834;8.736;2023-03-23T04:12:40;11.30;99.90
28484;DHT22;15704;48.834;8.736;2023-03-23T04:15:06;11.30;99.90
28484;DHT22;15704;48.834;8.736;2023-03-23T04:17:34;11.30;99.90
28484;DHT22;15704;48.834;8.736;2023-03-23T04:19:59;11.30;99.90
28484;DHT22;15704;48.834;8.736;2023-03-23T04:22:26;11.30;99.90
28484;DHT22;15704;48.834;8.736;2023-03-23T04:24:57;11.30;99.90
28484;DHT22;15704;48.834;8.736;2023-03-23T04:27:25;11.30;99.90
28484;DHT22;15704;48.834;8.736;2023-03-23T04:29:50;11.30;99.90
28484;DHT22;15704;48.834;8.736;2023-03-23T04:32:16;11.30;99.90
28484;DHT22;15704;48.834;8.736;2023-03-23T04:34:45;11.20;99.90
28484;DHT22;15704;48.834;8.736;2023-03-23T04:37:10;11.20;99.90
28484;DHT22;15704;48.834;8.736;2023-03-23T04:39:36;11.20;99.90
28484;DHT22;15704;48.834;8.736;2023-03-23T04:42:05;11.20;99.90
28484;DHT22;15704;48.834;8.736;2023-03-23T04:44:30;11.20;99.90
28484;DHT22;15704;48.834;8.736;2023-03-23T04:47:00;11.20;99.90
28484;DHT22;15704;48.834;8.736;2023-03-23T04:49:26;11.20;99.90
28484;DHT22;15704;48.834;8.736;2023-03-23T04:51:52;11.10;99.90
28484;DHT22;15704;48.834;8.736;2023-03-23T04:54:18;11.20;99.90
28484;DHT22;15704;48.834;8.736;2023-03-23T04:56:43;11.10;99.90
28484;DHT22;15704;48.834;8.736;2023-03-23T04:59:09;11.20;99.90
28484;DHT22;15704;48.834;8.736;2023-03-23T05:01:35;11.20;99.90
28484;DHT22;15704;48.834;8.736;2023-03-23T05:04:03;11.20;99.90
28484;DHT22;15704;48.834;8.736;2023-03-23T05:06:29;11.20;99.90
28484;DHT22;15704;48.834;8.736;2023-03-23T05:08:55;11.20;99.90
28484;DHT22;15704;48.834;8.736;2023-03-23T05:11:21;11.20;99.90
28484;DHT22;15704;48.834;8.736;2023-03-23T05:13:46;11.20;99.90
28484;DHT22;15704;48.834;8.736;2023-03-23T05:16:12;11.20;99.90
28484;DHT22;15704;48.834;8.736;2023-03-23T05:18:38;11.20;99.90
28484;DHT22;15704;48.834;8.736;2023-03-23T05:21:04;11.20;99.90
28484;DHT22;15704;48.834;8.736;2023-03-23T05:23:30;11.20;99.90
28484;DHT22;15704;48.834;8.736;2023-03-23T05:25:59;11.20;99.90
28484;DHT22;15704;48.834;8.736;2023-03-23T05:28:26;11.20;99.90
28484;DHT22;15704;48.834;8.736;2023-03-23T05:30:53;11.20;99.90
28484;DHT22;15704;48.834;8.736;2023-03-23T05:33:19;11.20;99.90
28484;DHT22;15704;48.834;8.736;2023-03-23T05:35:46;11.20;99.90
28484;DHT22;15704;48.834;8.736;2023-03-23T05:38:13;11.20;99.90
28484;DHT22;15704;48.834;8.736;2023-03-23T05:40:40;11.20;99.90
28484;DHT22;15704;48.834;8.736;2023-03-23T05:43:07;11.20;99.90
28484;DHT22;15704;48.834;8.736;2023-03-23T05:45:33;11.20;99.90
28484;DHT22;15704;48.834;8.736;2023-03-23T05:48:00;11.20;99.90
28484;DHT22;15704;48.834;8.736;2023-03-23T05:50:26;11.20;99.90
28484;DHT22;15704;48.834;8.736;2023-03-23T05:52:54;11.20;99.90
28484;DHT22;15704;48.834;8.736;2023-03-23T05:55:19;11.10;99.90
28484;DHT22;15704;48.834;8.736;2023-03-23T05:57:45;11.10;99.90
28484;DHT22;15704;48.834;8.736;2023-03-23T06:00:11;11.10;99.90
28484;DHT22;15704;48.834;8.736;2023-03-23T06:02:40;11.10;99.90
28484;DHT22;15704;48.834;8.736;2023-03-23T06:05:10;11.10;99.90
28484;DHT22;15704;48.834;8.736;2023-03-23T06:07:36;11.30;99.90
28484;DHT22;15704;48.834;8.736;2023-03-23T06:10:07;11.60;99.90
28484;DHT22;15704;48.834;8.736;2023-03-23T06:12:35;11.70;99.90
28484;DHT22;15704;48.834;8.736;2023-03-23T06:15:00;11.80;99.90
28484;DHT22;15704;48.834;8.736;2023-03-23T06:17:26;11.80;99.90
28484;DHT22;15704;48.834;8.736;2023-03-23T06:19:53;11.90;99.90
28484;DHT22;15704;48.834;8.736;2023-03-23T06:22:19;11.90;99.90
28484;DHT22;15704;48.834;8.736;2023-03-23T06:24:44;11.80;99.90
28484;DHT22;15704;48.834;8.736;2023-03-23T06:27:10;11.80;99.90
28484;DHT22;15704;48.834;8.736;2023-03-23T06:29:36;11.80;99.90
28484;DHT22;15704;48.834;8.736;2023-03-23T06:32:04;11.70;99.90
28484;DHT22;15704;48.834;8.736;2023-03-23T06:34:30;11.80;99.90
28484;DHT22;15704;48.834;8.736;2023-03-23T06:36:58;11.80;99.90
28484;DHT22;15704;48.834;8.736;2023-03-23T06:39:24;11.90;99.90
28484;DHT22;15704;48.834;8.736;2023-03-23T06:41:50;12.00;99.90
28484;DHT22;15704;48.834;8.736;2023-03-23T06:44:16;12.10;99.90
28484;DHT22;15704;48.834;8.736;2023-03-23T06:46:42;12.20;99.90
28484;DHT22;15704;48.834;8.736;2023-03-23T06:49:08;12.20;99.90
28484;DHT22;15704;48.834;8.736;2023-03-23T06:51:34;12.10;99.90
28484;DHT22;15704;48.834;8.736;2023-03-23T06:54:00;12.10;99.90
28484;DHT22;15704;48.834;8.736;2023-03-23T06:56:26;12.00;99.90
28484;DHT22;15704;48.834;8.736;2023-03-23T06:58:52;12.00;99.90
28484;DHT22;15704;48.834;8.736;2023-03-23T07:01:18;11.90;99.90
28484;DHT22;15704;48.834;8.736;2023-03-23T07:03:44;11.90;99.90
28484;DHT22;15704;48.834;8.736;2023-03-23T07:06:10;11.90;99.90
28484;DHT22;15704;48.834;8.736;2023-03-23T07:08:36;11.90;99.90
28484;DHT22;15704;48.834;8.736;2023-03-23T07:11:02;11.90;99.90
28484;DHT22;15704;48.834;8.736;2023-03-23T07:13:28;11.90;99.90
28484;DHT22;15704;48.834;8.736;2023-03-23T07:15:54;11.90;99.90
28484;DHT22;15704;48.834;8.736;2023-03-23T07:18:20;11.90;99.90
28484;DHT22;15704;48.834;8.736;2023-03-23T07:20:50;11.90;99.90
28484;DHT22;15704;48.834;8.736;2023-03-23T07:23:17;11.90;99.90
28484;DHT22;15704;48.834;8.736;2023-03-23T07:25:43;11.90;99.90
28484;DHT22;15704;48.834;8.736;2023-03-23T07:28:10;11.90;99.90
28484;DHT22;15704;48.834;8.736;2023-03-23T07:30:36;11.90;99.90
28484;DHT22;15704;48.834;8.736;2023-03-23T07:33:07;11.90;99.90
28484;DHT22;15704;48.834;8.736;2023-03-23T07:35:33;12.00;99.90
28484;DHT22;15704;48.834;8.736;2023-03-23T07:37:59;12.10;99.90
28484;DHT22;15704;48.834;8.736;2023-03-23T07:40:25;12.20;99.90
28484;DHT22;15704;48.834;8.736;2023-03-23T07:42:56;12.30;99.90
28484;DHT22;15704;48.834;8.736;2023-03-23T07:45:23;12.30;99.90
28484;DHT22;15704;48.834;8.736;2023-03-23T07:47:48;12.40;99.90
28484;DHT22;15704;48.834;8.736;2023-03-23T07:50:14;12.40;99.90
28484;DHT22;15704;48.834;8.736;2023-03-23T07:52:40;12.40;99.90
28484;DHT22;15704;48.834;8.736;2023-03-23T07:55:09;12.40;99.90
28484;DHT22;15704;48.834;8.736;2023-03-23T07:57:37;12.40;99.90
28484;DHT22;15704;48.834;8.736;2023-03-23T08:00:04;12.40;99.90
28484;DHT22;15704;48.834;8.736;2023-03-23T08:02:36;12.40;99.90
28484;DHT22;15704;48.834;8.736;2023-03-23T08:05:02;12.40;99.90
28484;DHT22;15704;48.834;8.736;2023-03-23T08:07:28;12.60;99.90
28484;DHT22;15704;48.834;8.736;2023-03-23T08:09:53;12.80;99.90
28484;DHT22;15704;48.834;8.736;2023-03-23T08:12:19;12.90;99.90
28484;DHT22;15704;48.834;8.736;2023-03-23T08:14:45;12.80;99.90
28484;DHT22;15704;48.834;8.736;2023-03-23T08:17:10;12.80;99.90
28484;DHT22;15704;48.834;8.736;2023-03-23T08:19:36;12.70;99.90
28484;DHT22;15704;48.834;8.736;2023-03-23T08:22:03;12.70;99.90
28484;DHT22;15704;48.834;8.736;2023-03-23T08:24:30;12.60;99.90
28484;DHT22;15704;48.834;8.736;2023-03-23T08:26:56;12.50;99.90
28484;DHT22;15704;48.834;8.736;2023-03-23T08:29:22;12.40;99.90
28484;DHT22;15704;48.834;8.736;2023-03-23T08:31:47;12.30;99.90
28484;DHT22;15704;48.834;8.736;2023-03-23T08:34:13;12.20;99.90
28484;DHT22;15704;48.834;8.736;2023-03-23T08:36:39;12.30;99.90
28484;DHT22;15704;48.834;8.736;2023-03-23T08:39:05;12.30;99.90
28484;DHT22;15704;48.834;8.736;2023-03-23T08:41:31;12.20;99.90
28484;DHT22;15704;48.834;8.736;2023-03-23T08:43:57;12.20;99.90
28484;DHT22;15704;48.834;8.736;2023-03-23T08:46:23;12.10;99.90
28484;DHT22;15704;48.834;8.736;2023-03-23T08:48:49;12.00;99.90
28484;DHT22;15704;48.834;8.736;2023-03-23T08:51:15;12.00;99.90
28484;DHT22;15704;48.834;8.736;2023-03-23T08:53:40;12.10;99.90
28484;DHT22;15704;48.834;8.736;2023-03-23T08:56:09;12.20;99.90
28484;DHT22;15704;48.834;8.736;2023-03-23T08:58:36;12.30;99.90
28484;DHT22;15704;48.834;8.736;2023-03-23T09:01:03;12.40;99.90
28484;DHT22;15704;48.834;8.736;2023-03-23T09:03:30;12.60;99.90
28484;DHT22;15704;48.834;8.736;2023-03-23T09:06:00;12.70;99.90
28484;DHT22;15704;48.834;8.736;2023-03-23T09:08:27;12.90;99.90
28484;DHT22;15704;48.834;8.736;2023-03-23T09:11:05;13.10;99.90
28484;DHT22;15704;48.834;8.736;2023-03-23T09:13:33;12.90;99.90
28484;DHT22;15704;48.834;8.736;2023-03-23T09:15:58;13.00;99.90
28484;DHT22;15704;48.834;8.736;2023-03-23T09:18:24;12.90;99.90
28484;DHT22;15704;48.834;8.736;2023-03-23T09:20:52;13.00;99.90
28484;DHT22;15704;48.834;8.736;2023-03-23T09:23:18;12.90;99.90
28484;DHT22;15704;48.834;8.736;2023-03-23T09:25:44;12.60;99.90
28484;DHT22;15704;48.834;8.736;2023-03-23T09:28:10;12.90;99.90
28484;DHT22;15704;48.834;8.736;2023-03-23T09:30:37;13.00;99.90
28484;DHT22;15704;48.834;8.736;2023-03-23T09:33:06;13.20;99.90
28484;DHT22;15704;48.834;8.736;2023-03-23T09:35:34;13.60;99.90
28484;DHT22;15704;48.834;8.736;2023-03-23T09:38:01;13.90;99.90
28484;DHT22;15704;48.834;8.736;2023-03-23T09:48:55;13.80;99.90
28484;DHT22;15704;48.834;8.736;2023-03-23T09:54:23;13.40;99.90
28484;DHT22;15704;48.834;8.736;2023-03-23T09:56:51;13.70;99.90
28484;DHT22;15704;48.834;8.736;2023-03-23T09:59:24;13.70;99.90
28484;DHT22;15704;48.834;8.736;2023-03-23T10:02:16;13.60;99.90
28484;DHT22;15704;48.834;8.736;2023-03-23T10:04:47;13.60;99.90
28484;DHT22;15704;48.834;8.736;2023-03-23T10:07:22;13.90;99.90
28484;DHT22;15704;48.834;8.736;2023-03-23T10:09:51;13.80;99.90
28484;DHT22;15704;48.834;8.736;2023-03-23T10:12:32;13.70;99.90
28484;DHT22;15704;48.834;8.736;2023-03-23T10:15:20;13.70;99.90
28484;DHT22;15704;48.834;8.736;2023-03-23T10:26:06;14.20;99.90
28484;DHT22;15704;48.834;8.736;2023-03-23T10:28:44;14.00;99.90
28484;DHT22;15704;48.834;8.736;2023-03-23T10:31:14;14.20;99.90
28484;DHT22;15704;48.834;8.736;2023-03-23T10:33:48;13.80;99.90
28484;DHT22;15704;48.834;8.736;2023-03-23T10:41:33;13.90;99.90
28484;DHT22;15704;48.834;8.736;2023-03-23T10:43:59;14.20;99.90
28484;DHT22;15704;48.834;8.736;2023-03-23T10:46:42;14.20;99.90
28484;DHT22;15704;48.834;8.736;2023-03-23T10:49:26;14.60;99.90
28484;DHT22;15704;48.834;8.736;2023-03-23T10:54:38;14.70;99.90
28484;DHT22;15704;48.834;8.736;2023-03-23T10:57:25;15.00;99.90
28484;DHT22;15704;48.834;8.736;2023-03-23T11:02:31;15.80;99.90
28484;DHT22;15704;48.834;8.736;2023-03-23T11:05:01;15.70;99.90
28484;DHT22;15704;48.834;8.736;2023-03-23T11:07:31;15.30;99.90
28484;DHT22;15704;48.834;8.736;2023-03-23T11:10:15;15.00;99.90
28484;DHT22;15704;48.834;8.736;2023-03-23T11:12:44;14.90;99.90
28484;DHT22;15704;48.834;8.736;2023-03-23T11:15:30;15.20;99.90
28484;DHT22;15704;48.834;8.736;2023-03-23T11:18:04;15.00;99.90
28484;DHT22;15704;48.834;8.736;2023-03-23T11:20:36;15.30;99.90
28484;DHT22;15704;48.834;8.736;2023-03-23T11:23:11;15.70;99.90
28484;DHT22;15704;48.834;8.736;2023-03-23T11:28:31;16.00;99.90
28484;DHT22;15704;48.834;8.736;2023-03-23T11:31:00;16.10;99.90
28484;DHT22;15704;48.834;8.736;2023-03-23T11:33:36;16.30;99.90
28484;DHT22;15704;48.834;8.736;2023-03-23T11:36:06;16.30;99.90
28484;DHT22;15704;48.834;8.736;2023-03-23T11:38:32;16.40;99.90
28484;DHT22;15704;48.834;8.736;2023-03-23T11:40:59;16.00;99.90
28484;DHT22;15704;48.834;8.736;2023-03-23T11:43:26;15.60;99.90
28484;DHT22;15704;48.834;8.736;2023-03-23T11:48:33;15.50;99.90
28484;DHT22;15704;48.834;8.736;2023-03-23T11:53:59;15.30;99.90
28484;DHT22;15704;48.834;8.736;2023-03-23T11:56:36;15.40;99.90
28484;DHT22;15704;48.834;8.736;2023-03-23T11:59:05;15.20;99.90
28484;DHT22;15704;48.834;8.736;2023-03-23T12:09:31;15.30;99.90
28484;DHT22;15704;48.834;8.736;2023-03-23T12:17:56;15.90;99.90
28484;DHT22;15704;48.834;8.736;2023-03-23T12:20:57;16.10;99.90
28484;DHT22;15704;48.834;8.736;2023-03-23T12:23:33;16.60;99.90
28484;DHT22;15704;48.834;8.736;2023-03-23T12:26:21;16.70;99.90
28484;DHT22;15704;48.834;8.736;2023-03-23T12:48:08;15.90;99.90
28484;DHT22;15704;48.834;8.736;2023-03-23T12:50:44;16.10;99.90
28484;DHT22;15704;48.834;8.736;2023-03-23T12:53:25;16.40;99.90
28484;DHT22;15704;48.834;8.736;2023-03-23T12:56:19;16.10;99.90
28484;DHT22;15704;48.834;8.736;2023-03-23T13:01:36;16.10;99.90
28484;DHT22;15704;48.834;8.736;2023-03-23T13:04:14;16.50;99.90
28484;DHT22;15704;48.834;8.736;2023-03-23T13:06:47;16.60;99.90
28484;DHT22;15704;48.834;8.736;2023-03-23T13:11:43;16.80;99.90
28484;DHT22;15704;48.834;8.736;2023-03-23T13:17:06;16.90;99.90
28484;DHT22;15704;48.834;8.736;2023-03-23T13:28:23;16.90;99.90
28484;DHT22;15704;48.834;8.736;2023-03-23T13:30:56;16.70;99.90
28484;DHT22;15704;48.834;8.736;2023-03-23T13:33:23;16.70;99.90
28484;DHT22;15704;48.834;8.736;2023-03-23T13:35:49;16.70;99.90
28484;DHT22;15704;48.834;8.736;2023-03-23T13:38:26;16.70;99.90
28484;DHT22;15704;48.834;8.736;2023-03-23T13:40:53;16.60;99.90
28484;DHT22;15704;48.834;8.736;2023-03-23T13:43:31;16.20;99.90
28484;DHT22;15704;48.834;8.736;2023-03-23T13:48:50;16.00;99.90
28484;DHT22;15704;48.834;8.736;2023-03-23T14:01:54;15.40;99.90
28484;DHT22;15704;48.834;8.736;2023-03-23T14:04:21;15.30;99.90
28484;DHT22;15704;48.834;8.736;2023-03-23T14:06:49;15.40;99.90
28484;DHT22;15704;48.834;8.736;2023-03-23T14:09:30;15.70;99.90
28484;DHT22;15704;48.834;8.736;2023-03-23T14:12:00;15.80;99.90
28484;DHT22;15704;48.834;8.736;2023-03-23T14:14:39;16.10;99.90
28484;DHT22;15704;48.834;8.736;2023-03-23T14:17:18;16.30;99.90
28484;DHT22;15704;48.834;8.736;2023-03-23T14:19:50;16.50;99.90
28484;DHT22;15704;48.834;8.736;2023-03-23T14:22:28;16.50;99.90
28484;DHT22;15704;48.834;8.736;2023-03-23T14:25:02;16.40;99.90
28484;DHT22;15704;48.834;8.736;2023-03-23T14:27:34;16.50;99.90
28484;DHT22;15704;48.834;8.736;2023-03-23T14:30:06;16.50;99.90
28484;DHT22;15704;48.834;8.736;2023-03-23T14:32:32;16.70;99.90
28484;DHT22;15704;48.834;8.736;2023-03-23T14:35:00;16.60;99.90
28484;DHT22;15704;48.834;8.736;2023-03-23T14:37:31;16.40;99.90
28484;DHT22;15704;48.834;8.736;2023-03-23T14:39:58;16.40;99.90
28484;DHT22;15704;48.834;8.736;2023-03-23T14:42:32;16.60;99.90
28484;DHT22;15704;48.834;8.736;2023-03-23T14:45:00;16.60;99.90
28484;DHT22;15704;48.834;8.736;2023-03-23T14:47:36;16.70;99.90
28484;DHT22;15704;48.834;8.736;2023-03-23T14:50:05;16.60;99.90
28484;DHT22;15704;48.834;8.736;2023-03-23T14:52:36;16.60;99.90
28484;DHT22;15704;48.834;8.736;2023-03-23T14:55:20;16.30;99.90
28484;DHT22;15704;48.834;8.736;2023-03-23T14:57:47;16.40;99.90
28484;DHT22;15704;48.834;8.736;2023-03-23T15:00:26;16.30;99.90
28484;DHT22;15704;48.834;8.736;2023-03-23T15:02:56;16.20;99.90
28484;DHT22;15704;48.834;8.736;2023-03-23T15:05:33;16.10;99.90
28484;DHT22;15704;48.834;8.736;2023-03-23T15:08:06;16.00;99.90
28484;DHT22;15704;48.834;8.736;2023-03-23T15:10:33;16.10;99.90
28484;DHT22;15704;48.834;8.736;2023-03-23T15:12:59;16.10;99.90
28484;DHT22;15704;48.834;8.736;2023-03-23T15:15:28;16.10;99.90
28484;DHT22;15704;48.834;8.736;2023-03-23T15:17:55;16.00;99.90
28484;DHT22;15704;48.834;8.736;2023-03-23T15:22:54;15.50;99.90
28484;DHT22;15704;48.834;8.736;2023-03-23T15:27:58;15.50;99.90
28484;DHT22;15704;48.834;8.736;2023-03-23T15:30:35;15.60;99.90
28484;DHT22;15704;48.834;8.736;2023-03-23T15:33:04;15.60;99.90
28484;DHT22;15704;48.834;8.736;2023-03-23T15:35:35;15.60;99.90
28484;DHT22;15704;48.834;8.736;2023-03-23T15:38:03;15.60;99.90
28484;DHT22;15704;48.834;8.736;2023-03-23T15:40:37;15.50;99.90
28484;DHT22;15704;48.834;8.736;2023-03-23T15:43:17;15.40;99.90
28484;DHT22;15704;48.834;8.736;2023-03-23T15:46:04;15.50;99.90
28484;DHT22;15704;48.834;8.736;2023-03-23T15:51:12;15.40;99.90
28484;DHT22;15704;48.834;8.736;2023-03-23T15:53:39;15.40;99.90
28484;DHT22;15704;48.834;8.736;2023-03-23T15:56:08;15.40;99.90
28484;DHT22;15704;48.834;8.736;2023-03-23T15:58:35;15.40;99.90
28484;DHT22;15704;48.834;8.736;2023-03-23T16:03:56;15.30;99.90
28484;DHT22;15704;48.834;8.736;2023-03-23T16:06:25;15.20;99.90
28484;DHT22;15704;48.834;8.736;2023-03-23T16:08:54;15.10;99.90
28484;DHT22;15704;48.834;8.736;2023-03-23T16:11:23;15.10;99.90
28484;DHT22;15704;48.834;8.736;2023-03-23T16:13:50;15.00;99.90
28484;DHT22;15704;48.834;8.736;2023-03-23T16:16:22;14.90;99.90
28484;DHT22;15704;48.834;8.736;2023-03-23T16:18:50;14.80;99.90
28484;DHT22;15704;48.834;8.736;2023-03-23T16:21:17;14.70;99.90
28484;DHT22;15704;48.834;8.736;2023-03-23T16:23:43;14.60;99.90
28484;DHT22;15704;48.834;8.736;2023-03-23T16:26:12;14.60;99.90
28484;DHT22;15704;48.834;8.736;2023-03-23T16:28:41;14.40;99.90
28484;DHT22;15704;48.834;8.736;2023-03-23T16:31:07;14.50;99.90
28484;DHT22;15704;48.834;8.736;2023-03-23T16:33:34;14.50;99.90
28484;DHT22;15704;48.834;8.736;2023-03-23T16:36:02;14.60;99.90
28484;DHT22;15704;48.834;8.736;2023-03-23T16:38:29;14.50;99.90
28484;DHT22;15704;48.834;8.736;2023-03-23T16:40:56;14.60;99.90
28484;DHT22;15704;48.834;8.736;2023-03-23T16:43:23;14.60;99.90
28484;DHT22;15704;48.834;8.736;2023-03-23T16:45:49;14.60;99.90
28484;DHT22;15704;48.834;8.736;2023-03-23T16:48:20;14.60;99.90
28484;DHT22;15704;48.834;8.736;2023-03-23T16:50:47;14.60;99.90
28484;DHT22;15704;48.834;8.736;2023-03-23T16:53:14;14.50;99.90
28484;DHT22;15704;48.834;8.736;2023-03-23T16:55:41;14.50;99.90
28484;DHT22;15704;48.834;8.736;2023-03-23T16:58:14;14.50;99.90
28484;DHT22;15704;48.834;8.736;2023-03-23T17:00:45;14.50;99.90
28484;DHT22;15704;48.834;8.736;2023-03-23T17:03:13;14.40;99.90
28484;DHT22;15704;48.834;8.736;2023-03-23T17:05:42;14.40;99.90
28484;DHT22;15704;48.834;8.736;2023-03-23T17:08:10;14.40;99.90
28484;DHT22;15704;48.834;8.736;2023-03-23T17:10:38;14.30;99.90
28484;DHT22;15704;48.834;8.736;2023-03-23T17:13:06;14.20;99.90
28484;DHT22;15704;48.834;8.736;2023-03-23T17:15:39;14.20;99.90
28484;DHT22;15704;48.834;8.736;2023-03-23T17:18:07;14.20;99.90
28484;DHT22;15704;48.834;8.736;2023-03-23T17:20:34;14.20;99.90
28484;DHT22;15704;48.834;8.736;2023-03-23T17:23:02;14.20;99.90
28484;DHT22;15704;48.834;8.736;2023-03-23T17:25:29;14.10;99.90
28484;DHT22;15704;48.834;8.736;2023-03-23T17:27:57;14.00;99.90
28484;DHT22;15704;48.834;8.736;2023-03-23T17:30:32;14.00;99.90
28484;DHT22;15704;48.834;8.736;2023-03-23T17:32:59;13.90;99.90
28484;DHT22;15704;48.834;8.736;2023-03-23T17:35:26;13.90;99.90
28484;DHT22;15704;48.834;8.736;2023-03-23T17:37:53;13.90;99.90
28484;DHT22;15704;48.834;8.736;2023-03-23T17:40:19;13.80;99.90
28484;DHT22;15704;48.834;8.736;2023-03-23T17:42:46;13.80;99.90
28484;DHT22;15704;48.834;8.736;2023-03-23T17:45:13;13.80;99.90
28484;DHT22;15704;48.834;8.736;2023-03-23T17:47:39;13.70;99.90
28484;DHT22;15704;48.834;8.736;2023-03-23T17:50:07;13.70;99.90
28484;DHT22;15704;48.834;8.736;2023-03-23T17:52:38;13.70;99.90
28484;DHT22;15704;48.834;8.736;2023-03-23T17:55:05;13.70;99.90
28484;DHT22;15704;48.834;8.736;2023-03-23T17:57:32;13.70;99.90
28484;DHT22;15704;48.834;8.736;2023-03-23T18:00:01;13.70;99.90